Time;durP1;ratioP1;P1;durP2;ratioP2;P2;SDS_P1;SDS_P2;PMS_P1;PMS_P2;Temp;Humidity;BMP_temperature;BMP_pressure;BME280_temperature;BME280_humidity;BME280_pressure;Samples;Min_cycle;Max_cycle;Signal;HPM_P1;HPM_P2
2023/03/17 00:01:58;;;;;;;3.30;1.90;;;;;;;8.56;34.87;100560.31;5008079;28;20054;-77
2023/03/17 00:04:27;;;;;;;3.88;1.90;;;;;;;8.57;34.84;100573.81;4993811;28;20054;-77
2023/03/17 00:06:56;;;;;;;3.78;1.90;;;;;;;8.57;34.63;100571.09;5018436;28;20073;-77
2023/03/17 00:09:25;;;;;;;2.70;1.85;;;;;;;8.58;34.65;100588.31;5001544;28;20045;-77
2023/03/17 00:11:54;;;;;;;3.45;1.77;;;;;;;8.59;34.78;100595.47;5002258;28;20251;-77
2023/03/17 00:14:22;;;;;;;3.13;1.63;;;;;;;8.58;34.85;100600.09;5001548;28;20046;-77
2023/03/17 00:16:51;;;;;;;3.10;1.60;;;;;;;8.59;34.98;100604.53;4997117;28;20058;-77
2023/03/17 00:19:26;;;;;;;3.53;2.03;;;;;;;8.61;34.97;100601.69;4995482;28;20045;-77
2023/03/17 00:21:54;;;;;;;3.53;1.88;;;;;;;8.61;34.79;100607.13;4973954;28;20105;-77
2023/03/17 00:24:22;;;;;;;3.28;1.80;;;;;;;8.61;34.97;100601.69;4968515;28;20351;-78
2023/03/17 00:26:50;;;;;;;4.03;1.98;;;;;;;8.63;34.77;100610.63;4991327;28;20057;-77
2023/03/17 00:29:19;;;;;;;4.07;1.90;;;;;;;8.65;35.02;100614.97;4990546;28;20038;-77
2023/03/17 00:31:50;;;;;;;3.38;1.85;;;;;;;8.64;34.99;100626.00;4987690;28;20066;-77
2023/03/17 00:34:22;;;;;;;3.30;1.98;;;;;;;8.62;35.04;100627.97;4992636;28;20050;-77
2023/03/17 00:36:51;;;;;;;2.95;1.95;;;;;;;8.65;35.29;100625.88;4988653;28;20132;-77
2023/03/17 00:39:19;;;;;;;3.45;2.00;;;;;;;8.65;35.02;100622.28;4987756;28;20035;-77
2023/03/17 00:41:47;;;;;;;5.68;1.92;;;;;;;8.65;34.87;100612.22;4991645;28;20077;-77
2023/03/17 00:44:16;;;;;;;4.07;2.10;;;;;;;8.65;34.86;100625.88;4988447;28;20490;-77
2023/03/17 00:46:45;;;;;;;4.07;2.00;;;;;;;8.66;34.77;100618.56;4975348;28;20105;-77
2023/03/17 00:49:16;;;;;;;3.63;2.08;;;;;;;8.65;35.14;100617.69;5001174;28;20047;-77
2023/03/17 00:51:49;;;;;;;3.88;2.20;;;;;;;8.65;35.04;100601.31;4986589;28;20054;-76
2023/03/17 00:54:19;;;;;;;4.88;2.20;;;;;;;8.65;35.16;100589.53;4990431;28;20128;-77
2023/03/17 00:56:48;;;;;;;3.67;2.10;;;;;;;8.66;35.02;100596.72;4986823;28;20077;-77
2023/03/17 00:59:24;;;;;;;4.15;2.15;;;;;;;8.66;34.89;100599.47;4971735;28;20045;-77
2023/03/17 01:01:55;;;;;;;3.60;2.05;;;;;;;8.64;35.27;100593.25;4992307;28;20048;-77
2023/03/17 01:04:23;;;;;;;3.65;1.98;;;;;;;8.62;35.05;100607.03;4993144;28;20054;-77
2023/03/17 01:06:52;;;;;;;4.38;2.22;;;;;;;8.65;34.96;100611.38;4987968;28;20557;-77
2023/03/17 01:09:23;;;;;;;3.70;2.00;;;;;;;8.64;35.17;100606.91;4988298;28;20085;-77
2023/03/17 01:11:51;;;;;;;4.63;1.90;;;;;;;8.63;34.99;100596.97;4988979;28;20064;-77
2023/03/17 01:14:18;;;;;;;2.75;1.77;;;;;;;8.62;34.88;100587.91;4989235;28;20047;-77
2023/03/17 01:16:47;;;;;;;3.92;2.08;;;;;;;8.62;35.11;100585.19;4973088;28;20068;-77
2023/03/17 01:19:16;;;;;;;3.85;2.08;;;;;;;8.64;34.98;100596.00;4969304;28;20105;-77
2023/03/17 01:21:45;;;;;;;3.85;2.05;;;;;;;8.60;35.21;100572.66;4967884;28;20047;-77
2023/03/17 01:24:13;;;;;;;5.20;2.00;;;;;;;8.61;35.16;100561.63;4970436;28;20138;-77
2023/03/17 01:26:41;;;;;;;4.05;2.08;;;;;;;8.60;35.46;100567.22;4972826;28;20141;-77
2023/03/17 01:29:09;;;;;;;3.28;2.08;;;;;;;8.58;35.18;100556.47;4969787;28;20047;-77
2023/03/17 01:31:37;;;;;;;3.95;2.05;;;;;;;8.58;34.98;100541.94;4970186;28;20419;-77
2023/03/17 01:34:05;;;;;;;3.67;2.10;;;;;;;8.58;35.25;100531.03;4967544;28;20042;-77
2023/03/17 01:36:36;;;;;;;4.35;2.30;;;;;;;8.59;35.14;100521.84;4988922;28;20512;-77
2023/03/17 01:39:06;;;;;;;4.15;2.35;;;;;;;8.55;34.83;100520.38;4984205;28;20042;-77
2023/03/17 01:41:36;;;;;;;4.38;2.42;;;;;;;8.53;35.11;100490.50;4974345;28;20039;-76
2023/03/17 01:44:04;;;;;;;4.28;2.00;;;;;;;8.54;35.28;100494.09;4969130;28;20046;-77
2023/03/17 01:46:34;;;;;;;3.90;2.35;;;;;;;8.54;35.16;100505.00;4988241;28;20566;-77
2023/03/17 01:49:11;;;;;;;4.03;2.10;;;;;;;8.54;34.86;100496.81;4999169;28;20414;-77
2023/03/17 01:51:46;;;;;;;2.90;1.85;;;;;;;8.52;35.14;100502.41;4998910;28;20046;-77
2023/03/17 01:54:18;;;;;;;3.38;1.95;;;;;;;8.50;35.04;100496.22;4994943;28;20093;-77
2023/03/17 01:56:50;;;;;;;3.67;1.92;;;;;;;8.48;34.83;100494.63;4999161;28;20055;-77
2023/03/17 01:59:23;;;;;;;3.17;1.58;;;;;;;8.50;35.08;100500.81;4983831;28;20054;-76
2023/03/17 02:01:54;;;;;;;;;;;;;;;8.23;35.49;100488.50;4985595;28;20055;-77
2023/03/17 02:04:24;;;;;;;3.63;1.80;;;;;;;8.44;35.27;100512.22;4989461;28;19922;-77
2023/03/17 02:06:54;;;;;;;3.00;1.80;;;;;;;8.48;35.00;100503.66;4996866;28;20610;-77
2023/03/17 02:09:27;;;;;;;3.40;1.88;;;;;;;8.46;34.97;100500.19;4993040;28;20045;-77
2023/03/17 02:11:56;;;;;;;4.65;1.77;;;;;;;8.47;34.97;100490.16;4991538;28;20423;-77
2023/03/17 02:14:24;;;;;;;2.90;1.85;;;;;;;8.47;35.08;100495.63;4971806;28;20058;-77
2023/03/17 02:16:52;;;;;;;3.42;1.90;;;;;;;8.47;35.36;100488.31;4990239;28;20509;-77
2023/03/17 02:19:20;;;;;;;3.42;1.92;;;;;;;8.46;35.10;100489.28;4972527;28;20047;-77
2023/03/17 02:21:52;;;;;;;4.55;1.92;;;;;;;8.48;35.13;100491.91;4989030;28;20062;-77
2023/03/17 02:24:26;;;;;;;3.28;2.03;;;;;;;8.47;34.83;100490.16;4992193;28;20137;-77
2023/03/17 02:26:58;;;;;;;3.13;1.83;;;;;;;8.46;35.30;100489.28;4973206;28;20065;-77
2023/03/17 02:29:26;;;;;;;3.17;1.85;;;;;;;8.46;35.07;100488.44;4972133;28;20047;-77
2023/03/17 02:31:54;;;;;;;3.83;1.88;;;;;;;8.46;35.42;100493.88;4996684;28;20084;-77
2023/03/17 02:34:22;;;;;;;3.42;2.05;;;;;;;8.47;34.90;100506.53;4992366;28;20042;-77
2023/03/17 02:36:51;;;;;;;3.28;1.75;;;;;;;8.47;34.83;100507.41;4984190;28;20055;-77
2023/03/17 02:39:19;;;;;;;3.88;2.08;;;;;;;8.47;35.34;100501.94;4996209;23;20046;-69
2023/03/17 02:41:47;;;;;;;3.08;1.73;;;;;;;8.46;35.45;100504.78;5025858;28;20041;-67
2023/03/17 02:44:15;;;;;;;3.95;1.90;;;;;;;8.46;35.38;100511.09;5006973;28;20056;-66
2023/03/17 02:46:43;;;;;;;3.22;1.80;;;;;;;8.45;35.14;100503.91;5003629;28;20053;-67
2023/03/17 02:49:11;;;;;;;3.40;1.83;;;;;;;8.46;35.11;100489.28;5005879;28;20587;-66
2023/03/17 02:51:39;;;;;;;2.95;1.85;;;;;;;8.45;35.32;100489.41;5000341;28;20046;-67
2023/03/17 02:54:09;;;;;;;3.20;1.88;;;;;;;8.45;35.19;100481.22;5009273;28;20066;-67
2023/03/17 02:56:37;;;;;;;4.53;2.10;;;;;;;8.43;35.14;100478.63;5003695;28;20125;-67
2023/03/17 02:59:06;;;;;;;2.85;1.70;;;;;;;8.43;35.30;100475.03;5005084;28;20041;-68
2023/03/17 03:01:34;;;;;;;3.28;1.83;;;;;;;8.41;35.12;100469.75;5005982;28;20046;-67
2023/03/17 03:04:02;;;;;;;3.25;2.10;;;;;;;8.40;35.06;100473.47;5008872;28;20527;-67
2023/03/17 03:06:31;;;;;;;3.17;1.90;;;;;;;8.39;35.01;100477.19;5004464;28;20046;-66
2023/03/17 03:08:59;;;;;;;3.85;2.10;;;;;;;8.40;35.36;100486.22;4998779;28;20068;-70
2023/03/17 03:11:28;;;;;;;3.83;2.00;;;;;;;8.40;35.21;100472.59;5009165;28;20053;-67
2023/03/17 03:13:56;;;;;;;3.33;2.00;;;;;;;8.38;34.90;100480.91;5011583;28;20041;-67
2023/03/17 03:16:24;;;;;;;3.50;1.95;;;;;;;8.36;35.11;100480.16;5009792;28;20042;-67
2023/03/17 03:18:52;;;;;;;4.07;1.95;;;;;;;8.36;35.02;100482.00;5012884;28;20120;-67
2023/03/17 03:21:20;;;;;;;3.15;2.10;;;;;;;8.34;35.40;100471.25;5010448;28;20045;-67
2023/03/17 03:23:49;;;;;;;4.63;2.10;;;;;;;8.34;35.05;100485.72;5026058;28;20050;-67
2023/03/17 03:26:17;;;;;;;3.40;2.10;;;;;;;8.33;35.06;100473.13;5009410;28;20048;-67
2023/03/17 03:28:46;;;;;;;3.58;2.20;;;;;;;8.32;34.97;100471.38;5000502;28;20129;-67
2023/03/17 03:31:14;;;;;;;4.00;1.98;;;;;;;8.30;35.00;100456.13;5009282;28;20558;-67
2023/03/17 03:33:42;;;;;;;3.90;1.90;;;;;;;8.30;35.24;100456.13;5027629;28;20052;-67
2023/03/17 03:36:12;;;;;;;2.97;1.90;;;;;;;8.29;34.96;100458.00;5016791;28;20053;-67
2023/03/17 03:38:40;;;;;;;4.20;2.10;;;;;;;8.29;35.18;100457.13;5011167;28;20050;-67
2023/03/17 03:41:08;;;;;;;4.25;2.20;;;;;;;8.28;35.11;100449.94;5015780;28;20121;-67
2023/03/17 03:43:36;;;;;;;3.80;2.10;;;;;;;8.27;34.98;100468.16;5013807;28;20094;-67
2023/03/17 03:46:05;;;;;;;4.30;1.80;;;;;;;8.27;35.25;100465.44;5006535;28;20111;-67
2023/03/17 03:48:33;;;;;;;3.33;2.20;;;;;;;8.26;35.30;100457.38;5014788;28;20084;-67
2023/03/17 03:51:02;;;;;;;4.32;2.10;;;;;;;8.24;35.20;100457.53;5012284;28;20096;-66
2023/03/17 03:53:30;;;;;;;4.85;2.13;;;;;;;8.24;35.22;100467.56;5012692;28;20091;-67
2023/03/17 03:55:58;;;;;;;3.33;2.00;;;;;;;8.23;35.24;100480.34;5010881;28;20057;-67
2023/03/17 03:58:26;;;;;;;3.88;2.20;;;;;;;8.22;35.00;100484.03;5011344;28;20109;-67
2023/03/17 04:00:54;;;;;;;3.33;1.95;;;;;;;8.21;35.21;100481.44;5009738;28;20046;-67
2023/03/17 04:03:23;;;;;;;3.47;2.00;;;;;;;8.23;35.05;100474.00;5008376;28;20132;-67
2023/03/17 04:05:51;;;;;;;3.53;2.15;;;;;;;8.21;35.25;100482.31;5005704;28;20038;-68
2023/03/17 04:08:19;;;;;;;4.20;1.90;;;;;;;8.20;35.25;100487.88;4991400;28;20046;-67
2023/03/17 04:10:47;;;;;;;3.45;1.98;;;;;;;8.20;35.11;100488.75;4984303;28;20762;-67
2023/03/17 04:13:15;;;;;;;4.13;2.00;;;;;;;8.20;35.43;100490.63;4989363;28;20065;-67
2023/03/17 04:15:43;;;;;;;4.50;2.38;;;;;;;8.20;35.37;100496.06;4997437;28;20462;-67
2023/03/17 04:18:11;;;;;;;4.47;2.30;;;;;;;8.18;35.25;100485.28;5012513;28;20128;-68
2023/03/17 04:20:41;;;;;;;3.25;1.90;;;;;;;8.19;35.24;100486.16;5014448;28;20042;-67
2023/03/17 04:23:09;;;;;;;4.32;2.00;;;;;;;8.17;35.32;100480.84;5009260;28;20572;-67
2023/03/17 04:25:36;;;;;;;2.97;1.90;;;;;;;8.18;35.31;100489.88;5003758;28;20046;-67
2023/03/17 04:28:05;;;;;;;3.33;2.03;;;;;;;8.17;35.13;100480.84;5011165;28;20077;-67
2023/03/17 04:30:33;;;;;;;3.28;2.00;;;;;;;8.16;35.39;100481.84;5000820;28;20045;-67
2023/03/17 04:33:01;;;;;;;4.70;2.20;;;;;;;8.16;35.47;100490.03;5013897;28;20432;-67
2023/03/17 04:35:29;;;;;;;4.15;2.17;;;;;;;8.17;35.38;100485.44;5008760;28;20103;-67
2023/03/17 04:37:58;;;;;;;5.38;2.28;;;;;;;8.17;35.32;100480.00;5012202;28;20065;-68
2023/03/17 04:40:26;;;;;;;4.07;2.00;;;;;;;8.15;35.50;100485.56;5004047;28;20046;-68
2023/03/17 04:42:54;;;;;;;4.22;2.10;;;;;;;8.16;35.12;100480.97;4980583;28;20038;-68
2023/03/17 04:45:22;;;;;;;4.20;1.98;;;;;;;8.15;35.27;100487.41;4986597;28;20489;-68
2023/03/17 04:47:49;;;;;;;3.08;2.03;;;;;;;8.15;35.27;100481.97;4987098;28;20054;-68
2023/03/17 04:50:17;;;;;;;3.42;2.08;;;;;;;8.12;35.57;100477.59;4987436;28;20058;-67
2023/03/17 04:52:45;;;;;;;4.65;2.30;;;;;;;8.12;35.43;100493.06;4988029;28;20049;-67
2023/03/17 04:55:15;;;;;;;4.63;2.22;;;;;;;8.12;35.46;100477.59;4989373;28;20050;-68
2023/03/17 04:57:43;;;;;;;4.35;2.40;;;;;;;8.11;35.15;100467.69;4991992;28;20105;-69
2023/03/17 05:00:14;;;;;;;3.25;2.22;;;;;;;8.10;35.01;100474.13;4985275;28;20069;-68
2023/03/17 05:02:42;;;;;;;3.90;2.40;;;;;;;8.10;35.36;100486.88;4994426;28;20049;-68
2023/03/17 05:05:11;;;;;;;3.85;2.15;;;;;;;8.09;35.36;100485.19;5008181;28;20042;-68
2023/03/17 05:07:39;;;;;;;4.97;2.13;;;;;;;8.08;35.28;100491.63;5002986;28;20453;-69
2023/03/17 05:10:08;;;;;;;4.40;2.70;;;;;;;8.06;35.26;100486.28;5029905;28;20322;-69
2023/03/17 05:12:37;;;;;;;5.30;2.55;;;;;;;8.07;35.55;100479.84;4983681;28;20070;-68
2023/03/17 05:15:06;;;;;;;3.80;2.35;;;;;;;8.07;35.37;100479.84;4990238;28;20042;-68
2023/03/17 05:17:34;;;;;;;5.10;2.35;;;;;;;8.06;35.51;100474.53;4990282;28;20066;-68
2023/03/17 05:20:03;;;;;;;4.47;2.10;;;;;;;8.05;35.61;100480.97;4990641;28;20098;-67
2023/03/17 05:22:31;;;;;;;3.50;2.08;;;;;;;8.04;35.59;100477.38;4990062;28;20576;-67
2023/03/17 05:24:59;;;;;;;4.45;2.28;;;;;;;8.03;35.57;100481.06;5000152;28;20046;-68
2023/03/17 05:27:27;;;;;;;4.43;2.22;;;;;;;8.03;35.53;100486.53;4993994;28;20065;-67
2023/03/17 05:29:56;;;;;;;3.67;2.40;;;;;;;8.05;35.22;100491.84;4982208;28;20054;-67
2023/03/17 05:32:24;;;;;;;3.70;2.35;;;;;;;8.01;35.62;100488.53;4990943;28;20062;-67
2023/03/17 05:34:52;;;;;;;4.70;2.33;;;;;;;8.01;35.31;100498.56;5004324;28;20446;-67
2023/03/17 05:37:20;;;;;;;4.50;2.20;;;;;;;8.01;35.76;100502.16;5010188;28;20056;-67
2023/03/17 05:39:48;;;;;;;4.43;2.20;;;;;;;8.01;35.43;100493.13;5008554;28;20113;-67
2023/03/17 05:42:16;;;;;;;4.07;2.13;;;;;;;8.01;35.48;100487.69;4991077;28;20252;-68
2023/03/17 05:44:44;;;;;;;3.88;2.30;;;;;;;8.01;35.61;100487.69;4993348;28;20251;-68
2023/03/17 05:47:13;;;;;;;3.63;2.20;;;;;;;8.02;35.52;100487.53;4990354;28;20057;-68
2023/03/17 05:49:41;;;;;;;3.13;2.00;;;;;;;8.00;35.49;100489.53;4993896;28;20049;-68
2023/03/17 05:52:09;;;;;;;3.58;2.40;;;;;;;8.01;35.41;100482.22;4987117;28;20030;-68
2023/03/17 05:54:37;;;;;;;4.10;2.20;;;;;;;8.01;35.79;100482.22;4990897;28;20042;-67
2023/03/17 05:57:05;;;;;;;4.07;2.35;;;;;;;8.01;35.49;100482.22;5005040;28;20061;-66
2023/03/17 05:59:33;;;;;;;4.82;2.40;;;;;;;8.01;35.34;100490.41;5006648;28;20041;-66
2023/03/17 06:02:01;;;;;;;3.90;2.40;;;;;;;8.01;35.69;100483.09;5009474;28;20073;-66
2023/03/17 06:04:31;;;;;;;3.70;2.20;;;;;;;8.02;35.67;100479.34;5007600;28;20065;-68
2023/03/17 06:06:59;;;;;;;4.35;2.35;;;;;;;8.00;35.49;100473.19;5008992;28;20074;-67
2023/03/17 06:09:27;;;;;;;4.32;2.35;;;;;;;8.01;35.53;100472.19;5016006;28;20050;-67
2023/03/17 06:11:55;;;;;;;3.53;2.05;;;;;;;8.02;35.48;100476.63;5010016;28;20088;-68
2023/03/17 06:14:23;;;;;;;4.55;2.55;;;;;;;8.00;35.49;100475.91;5007574;28;20050;-68
2023/03/17 06:16:54;;;;;;;4.78;2.30;;;;;;;8.01;35.70;100479.50;5015786;28;20413;-66
2023/03/17 06:19:21;;;;;;;3.00;2.10;;;;;;;8.01;35.73;100471.31;5011907;28;20493;-67
2023/03/17 06:21:51;;;;;;;4.28;2.25;;;;;;;8.03;35.55;100480.22;4998754;28;20112;-68
2023/03/17 06:24:18;;;;;;;3.67;2.47;;;;;;;8.02;35.39;100481.19;4990916;28;20437;-68
2023/03/17 06:26:46;;;;;;;4.47;2.38;;;;;;;8.02;35.60;100473.91;4990958;28;21052;-68
2023/03/17 06:29:14;;;;;;;4.57;2.30;;;;;;;8.03;35.65;100474.75;4990761;28;20050;-67
2023/03/17 06:31:49;;;;;;;4.07;2.42;;;;;;;8.05;35.84;100475.50;4990725;28;20124;-67
2023/03/17 06:34:17;;;;;;;3.15;2.20;;;;;;;8.06;35.91;100477.25;4993582;28;20136;-67
2023/03/17 06:36:45;;;;;;;4.45;2.35;;;;;;;8.07;35.51;100470.81;4998198;28;20512;-67
2023/03/17 06:39:16;;;;;;;4.47;2.00;;;;;;;8.10;35.90;100478.72;4998567;28;20041;-67
2023/03/17 06:41:44;;;;;;;4.28;2.08;;;;;;;8.10;36.09;100467.81;5022149;28;20045;-67
2023/03/17 06:44:12;;;;;;;4.10;2.47;;;;;;;8.13;35.85;100473.00;5018032;28;20061;-68
2023/03/17 06:46:41;;;;;;;3.22;2.13;;;;;;;8.16;36.14;100470.06;5002624;28;20387;-67
2023/03/17 06:49:12;;;;;;;4.68;2.40;;;;;;;8.18;36.15;100462.59;5010288;28;20513;-66
2023/03/17 06:51:40;;;;;;;4.30;2.03;;;;;;;8.22;36.28;100462.25;5007311;28;20467;-67
2023/03/17 06:54:08;;;;;;;3.75;2.17;;;;;;;8.29;36.11;100474.34;5023504;28;20060;-67
2023/03/17 06:56:37;;;;;;;4.57;2.33;;;;;;;8.38;36.32;100471.84;5001266;28;20053;-67
2023/03/17 06:59:05;;;;;;;4.53;2.10;;;;;;;8.43;36.62;100478.63;5013311;28;20065;-67
2023/03/17 07:01:33;;;;;;;4.28;2.10;;;;;;;8.53;36.40;100479.59;5007950;28;20052;-67
2023/03/17 07:04:01;;;;;;;4.28;2.25;;;;;;;8.62;36.42;100484.25;5009924;28;20170;-69
2023/03/17 07:06:29;;;;;;;4.43;2.38;;;;;;;8.70;36.55;100476.28;5010115;28;20045;-68
2023/03/17 07:08:57;;;;;;;4.35;2.20;;;;;;;8.84;36.46;100480.53;5023682;28;20133;-67
2023/03/17 07:11:29;;;;;;;3.72;1.88;;;;;;;8.98;36.47;100490.28;5011518;28;20058;-68
2023/03/17 07:13:58;;;;;;;3.65;2.08;;;;;;;9.13;36.39;100494.41;4992315;28;20038;-69
2023/03/17 07:16:26;;;;;;;3.80;2.17;;;;;;;9.26;36.28;100478.66;5010822;28;20049;-69
2023/03/17 07:18:54;;;;;;;4.97;2.40;;;;;;;9.42;36.18;100478.22;5016508;28;20129;-69
2023/03/17 07:21:22;;;;;;;3.38;1.95;;;;;;;9.58;36.44;100484.03;4997028;28;20057;-68
2023/03/17 07:23:50;;;;;;;3.40;2.15;;;;;;;9.73;35.89;100488.16;4989329;28;20109;-66
2023/03/17 07:26:18;;;;;;;3.13;1.92;;;;;;;9.89;35.96;100484.03;5007029;28;20061;-67
2023/03/17 07:28:46;;;;;;;4.60;2.08;;;;;;;10.05;35.78;100474.28;5003769;28;20038;-67
2023/03/17 07:31:15;;;;;;;3.47;1.85;;;;;;;10.21;35.54;100476.47;5011305;28;20046;-69
2023/03/17 07:33:43;;;;;;;4.55;1.90;;;;;;;10.34;35.66;100473.44;5010517;28;20052;-68
2023/03/17 07:36:12;;;;;;;5.93;2.60;;;;;;;10.49;35.54;100482.97;5014580;28;20509;-69
2023/03/17 07:38:40;;;;;;;3.38;1.92;;;;;;;10.64;35.18;100473.38;5008569;28;20508;-69
2023/03/17 07:41:08;;;;;;;4.10;2.20;;;;;;;10.78;34.94;100483.00;5007450;28;20046;-69
2023/03/17 07:43:37;;;;;;;3.72;2.00;;;;;;;10.92;35.09;100466.13;5001676;28;20046;-67
2023/03/17 07:46:06;;;;;;;3.22;1.83;;;;;;;11.05;34.63;100474.06;5000852;28;20050;-68
2023/03/17 07:48:39;;;;;;;4.07;2.00;;;;;;;11.18;34.70;100467.25;4992247;28;20073;-68
2023/03/17 07:51:12;;;;;;;4.00;2.33;;;;;;;11.31;34.35;100458.69;4996977;28;20107;-68
2023/03/17 07:53:40;;;;;;;;;;;;;;;11.09;33.98;100468.13;5001066;28;20042;-67
2023/03/17 07:56:08;;;;;;;3.30;1.80;;;;;;;11.43;34.47;100464.88;5005686;28;19964;-67
2023/03/17 07:58:36;;;;;;;3.80;2.05;;;;;;;11.53;34.26;100469.31;5009510;28;20096;-69
2023/03/17 08:01:05;;;;;;;4.35;2.10;;;;;;;11.59;33.51;100474.19;4996736;28;20282;-68
2023/03/17 08:03:35;;;;;;;3.20;2.10;;;;;;;11.64;33.38;100469.13;4991686;28;20664;-68
2023/03/17 08:06:07;;;;;;;3.08;1.73;;;;;;;11.64;32.85;100466.38;5004237;28;20062;-66
2023/03/17 08:08:35;;;;;;;3.88;2.00;;;;;;;11.63;32.68;100475.66;5006898;28;20111;-68
2023/03/17 08:11:05;;;;;;;4.30;2.20;;;;;;;11.64;32.36;100469.13;4994850;28;20117;-68
2023/03/17 08:13:33;;;;;;;4.38;2.00;;;;;;;11.59;32.78;100468.69;4989390;28;20046;-68
2023/03/17 08:16:01;;;;;;;3.22;2.15;;;;;;;11.54;32.65;100472.91;4991305;28;20057;-68
2023/03/17 08:18:29;;;;;;;4.05;2.13;;;;;;;11.50;32.63;100474.22;4993988;28;20044;-68
2023/03/17 08:20:59;;;;;;;3.65;1.90;;;;;;;11.47;32.54;100480.00;4986861;28;20457;-68
2023/03/17 08:23:26;;;;;;;3.20;1.85;;;;;;;11.40;32.55;100484.31;4984952;28;20049;-66
2023/03/17 08:25:57;;;;;;;5.18;2.30;;;;;;;11.35;32.14;100482.91;4986050;28;20046;-66
2023/03/17 08:28:26;;;;;;;3.47;1.67;;;;;;;11.29;32.67;100478.03;4990416;28;20222;-67
2023/03/17 08:30:56;;;;;;;4.10;1.88;;;;;;;11.23;32.66;100486.81;4988960;28;20409;-67
2023/03/17 08:33:24;;;;;;;3.75;2.00;;;;;;;11.18;32.34;100474.59;4985365;28;20031;-68
2023/03/17 08:35:52;;;;;;;4.22;1.95;;;;;;;11.15;32.50;100480.34;4991811;28;20065;-68
2023/03/17 08:38:21;;;;;;;2.80;1.55;;;;;;;11.13;32.21;100480.53;4988987;28;20085;-69
2023/03/17 08:40:49;;;;;;;5.15;1.90;;;;;;;11.09;32.53;100483.69;4988670;28;20081;-67
2023/03/17 08:43:17;;;;;;;3.65;1.70;;;;;;;11.08;32.86;100490.19;4989085;28;20638;-68
2023/03/17 08:45:45;;;;;;;3.45;1.85;;;;;;;11.07;32.74;100485.69;4987422;28;20486;-67
2023/03/17 08:48:14;;;;;;;3.55;1.80;;;;;;;11.06;32.58;100479.38;4992483;28;20042;-67
2023/03/17 08:50:42;;;;;;;3.03;1.92;;;;;;;11.05;32.67;100477.66;4986930;28;20045;-68
2023/03/17 08:53:10;;;;;;;3.63;1.85;;;;;;;11.06;33.16;100468.41;4990532;28;20042;-67
2023/03/17 08:55:40;;;;;;;2.78;1.65;;;;;;;11.08;33.08;100471.88;5000204;28;20042;-68
2023/03/17 08:58:08;;;;;;;3.55;1.85;;;;;;;11.09;33.01;100457.16;4994337;28;20042;-68
2023/03/17 09:00:36;;;;;;;4.10;1.90;;;;;;;11.12;33.32;100467.84;4985512;28;20074;-67
2023/03/17 09:03:04;;;;;;;3.00;1.60;;;;;;;11.14;32.87;100449.38;4989250;28;20417;-68
2023/03/17 09:05:32;;;;;;;3.55;1.75;;;;;;;11.17;32.87;100468.25;4992829;28;20053;-68
2023/03/17 09:08:04;;;;;;;3.15;1.83;;;;;;;11.18;32.99;100463.63;5008805;28;20397;-68
2023/03/17 09:10:32;;;;;;;4.07;1.70;;;;;;;11.23;33.24;100455.84;5004618;28;20536;-67
2023/03/17 09:13:03;;;;;;;4.10;1.95;;;;;;;11.28;33.08;100461.75;4988591;28;20605;-66
2023/03/17 09:15:32;;;;;;;3.08;1.80;;;;;;;11.30;33.01;100471.56;4989938;28;20053;-68
2023/03/17 09:18:02;;;;;;;2.90;1.63;;;;;;;11.34;32.98;100458.41;5010522;28;20045;-67
2023/03/17 09:20:30;;;;;;;3.97;1.77;;;;;;;11.35;32.70;100471.97;5013527;28;20046;-67
2023/03/17 09:22:59;;;;;;;2.75;1.60;;;;;;;11.38;32.70;100459.84;5005291;28;20077;-67
2023/03/17 09:25:27;;;;;;;3.40;1.70;;;;;;;11.42;33.26;100465.88;5009054;28;20047;-67
2023/03/17 09:27:55;;;;;;;3.42;2.10;;;;;;;11.42;32.74;100476.84;5009942;28;20103;-67
2023/03/17 09:30:25;;;;;;;3.45;1.75;;;;;;;11.48;32.54;100466.13;5010749;28;20054;-66
2023/03/17 09:32:53;;;;;;;2.80;1.52;;;;;;;11.51;32.77;100459.50;5007581;28;20046;-66
2023/03/17 09:35:21;;;;;;;3.13;1.80;;;;;;;11.53;32.55;100461.09;5017709;28;20056;-66
2023/03/17 09:37:50;;;;;;;3.30;1.60;;;;;;;11.58;32.75;100453.25;5003765;28;20064;-67
2023/03/17 09:40:21;;;;;;;4.28;1.70;;;;;;;11.63;32.38;100458.34;5008148;28;20160;-67
2023/03/17 09:43:00;;;;;;;3.15;1.63;;;;;;;11.68;32.63;100454.13;5011389;28;20504;-67
2023/03/17 09:45:33;;;;;;;3.15;1.98;;;;;;;11.71;32.40;100439.25;5013071;28;20046;-67
2023/03/17 09:48:28;;;;;;;3.53;1.83;;;;;;;11.76;32.03;100441.53;5010052;28;20121;-68
2023/03/17 09:50:58;;;;;;;3.08;1.70;;;;;;;11.76;32.61;100436.91;5009018;28;20064;-67
2023/03/17 09:53:32;;;;;;;3.47;1.90;;;;;;;11.81;32.34;100450.16;5022593;28;20049;-67
2023/03/17 09:56:06;;;;;;;2.65;1.77;;;;;;;11.86;32.32;100461.53;5011138;28;20482;-67
2023/03/17 09:58:37;;;;;;;2.83;1.70;;;;;;;11.89;32.77;100462.09;5014420;28;20132;-66
2023/03/17 10:01:09;;;;;;;5.13;1.90;;;;;;;11.94;32.72;100461.66;5003319;28;20866;-67
2023/03/17 10:03:37;;;;;;;3.77;2.30;;;;;;;11.95;33.00;100466.97;5006006;28;20524;-67
2023/03/17 10:06:18;;;;;;;3.08;1.90;;;;;;;12.04;32.30;100460.56;5011287;28;20116;-68
2023/03/17 10:08:55;;;;;;;3.50;1.98;;;;;;;12.07;32.21;100453.91;5006607;28;20034;-68
2023/03/17 10:11:31;;;;;;;3.83;2.20;;;;;;;12.13;32.12;100466.16;5004809;28;20042;-67
2023/03/17 10:14:03;;;;;;;2.80;2.00;;;;;;;12.16;32.41;100458.47;5003812;28;20042;-68
2023/03/17 10:16:41;;;;;;;2.97;1.52;;;;;;;12.22;32.03;100455.09;4991210;28;20458;-67
2023/03/17 10:19:21;;;;;;;3.45;1.90;;;;;;;12.24;32.07;100447.56;4984016;28;20038;-67
2023/03/17 10:21:57;;;;;;;4.30;2.00;;;;;;;12.28;32.15;100450.88;4991243;28;20145;-67
2023/03/17 10:24:26;;;;;;;4.32;1.90;;;;;;;12.28;32.51;100443.53;4982129;28;20047;-68
2023/03/17 10:26:58;;;;;;;3.90;1.90;;;;;;;12.33;32.39;100446.66;5001171;28;20045;-67
2023/03/17 10:29:26;;;;;;;3.20;1.90;;;;;;;12.33;32.56;100446.66;4993433;28;20412;-67
2023/03/17 10:31:56;;;;;;;2.55;1.52;;;;;;;12.39;32.24;100445.16;4987251;28;20043;-68
2023/03/17 10:34:28;;;;;;;3.35;1.65;;;;;;;12.43;32.58;100460.31;4987204;28;20652;-67
2023/03/17 10:37:01;;;;;;;3.00;1.70;;;;;;;12.48;32.18;100446.97;4985603;28;20085;-68
2023/03/17 10:39:29;;;;;;;3.75;1.95;;;;;;;12.49;32.59;100449.56;4987354;28;20592;-68
2023/03/17 10:42:08;;;;;;;3.40;1.80;;;;;;;12.60;32.41;100453.97;4986288;28;20528;-69
2023/03/17 10:44:43;;;;;;;3.40;1.85;;;;;;;12.66;31.83;100444.25;4987779;28;20651;-68
2023/03/17 10:47:31;;;;;;;2.85;1.60;;;;;;;12.70;32.02;100445.69;4986671;28;20292;-69
2023/03/17 10:50:04;;;;;;;3.13;1.83;;;;;;;12.78;32.17;100448.50;4989214;28;20137;-69
2023/03/17 10:52:38;;;;;;;3.25;1.70;;;;;;;12.86;32.01;100440.31;4987752;28;20046;-68
2023/03/17 10:55:07;;;;;;;3.22;1.70;;;;;;;12.90;32.04;100438.97;4988642;28;20117;-68
2023/03/17 10:57:37;;;;;;;3.15;1.90;;;;;;;12.98;32.74;100419.78;5021280;28;20038;-68
2023/03/17 11:00:14;;;;;;;3.22;1.60;;;;;;;13.08;32.06;100420.56;5012452;28;20083;-69
2023/03/17 11:02:48;;;;;;;3.35;1.80;;;;;;;13.16;32.48;100422.50;5005909;28;20301;-68
2023/03/17 11:05:22;;;;;;;2.83;1.70;;;;;;;13.27;31.70;100421.38;5006358;28;20104;-69
2023/03/17 11:07:56;;;;;;;3.58;2.10;;;;;;;13.33;32.63;100412.47;5005379;28;20047;-70
2023/03/17 11:10:26;;;;;;;3.63;2.10;;;;;;;13.46;32.26;100415.63;5008210;28;20045;-70
2023/03/17 11:12:59;;;;;;;4.10;2.05;;;;;;;13.56;32.07;100413.63;5009108;28;20046;-70
2023/03/17 11:15:33;;;;;;;4.88;1.70;;;;;;;13.65;31.99;100414.53;5014906;28;20042;-70
2023/03/17 11:18:04;;;;;;;2.88;1.48;;;;;;;13.74;32.21;100413.56;5006982;28;20514;-70
2023/03/17 11:20:42;;;;;;;3.30;1.65;;;;;;;13.84;31.42;100404.16;5003241;28;20046;-70
2023/03/17 11:23:21;;;;;;;4.35;1.95;;;;;;;13.93;31.42;100399.53;5006945;28;20038;-69
2023/03/17 11:25:57;;;;;;;4.60;1.80;;;;;;;14.02;31.67;100408.69;5007070;28;20563;-69
2023/03/17 11:28:33;;;;;;;3.65;2.00;;;;;;;14.10;31.30;100415.06;5010763;28;20096;-69
2023/03/17 11:31:09;;;;;;;2.92;1.50;;;;;;;14.20;31.04;100407.50;5014228;28;20089;-70
2023/03/17 11:33:46;;;;;;;4.00;1.95;;;;;;;14.28;31.40;100413.03;5011671;28;20436;-72
2023/03/17 11:36:29;;;;;;;3.30;1.63;;;;;;;14.35;31.04;100397.53;4999813;28;20548;-68
2023/03/17 11:39:03;;;;;;;3.72;1.50;;;;;;;14.41;31.12;100389.66;4980122;28;20046;-69
2023/03/17 11:41:58;;;;;;;3.88;1.90;;;;;;;14.48;30.61;100397.09;4991330;28;20092;-70
2023/03/17 11:44:54;;;;;;;3.17;1.65;;;;;;;14.56;30.67;100386.09;4993011;28;20050;-69